createdAt,value
2019-04-25T00:01:07.751Z,28.47
2019-04-25T00:03:38.394Z,25.40
2019-04-25T00:06:07.562Z,22.37
2019-04-25T00:08:37.265Z,28.80
2019-04-25T00:11:06.233Z,28.40
2019-04-25T00:13:34.791Z,29.07
2019-04-25T00:16:03.641Z,24.40
2019-04-25T00:18:32.221Z,50.80
2019-04-25T00:21:02.362Z,48.53
2019-04-25T00:23:31.747Z,36.73
2019-04-25T00:26:04.637Z,38.67
2019-04-25T00:28:33.213Z,38.47
2019-04-25T00:31:02.282Z,33.00
2019-04-25T00:33:31.476Z,42.13
2019-04-25T00:36:03.523Z,37.90
2019-04-25T00:38:31.843Z,37.77
2019-04-25T00:41:01.727Z,32.80
2019-04-25T00:43:31.495Z,38.40
2019-04-25T00:46:01.519Z,42.83
2019-04-25T00:48:31.700Z,41.80
2019-04-25T00:51:01.889Z,47.93
2019-04-25T00:53:30.790Z,39.03
2019-04-25T00:56:01.434Z,37.70
2019-04-25T00:58:31.841Z,46.87
2019-04-25T01:01:07.913Z,44.87
2019-04-25T01:03:36.892Z,45.20
2019-04-25T01:06:05.378Z,42.77
2019-04-25T01:08:33.886Z,42.23
2019-04-25T01:11:02.393Z,45.13
2019-04-25T01:13:32.172Z,46.10
2019-04-25T01:16:03.692Z,45.77
2019-04-25T01:18:31.389Z,56.37
2019-04-25T01:21:00.391Z,41.57
2019-04-25T01:23:28.982Z,47.27
2019-04-25T01:25:57.505Z,44.43
2019-04-25T01:28:26.066Z,40.67
2019-04-25T01:30:55.123Z,39.20
2019-04-25T01:33:25.658Z,43.10
2019-04-25T01:35:58.683Z,42.83
2019-04-25T01:38:31.415Z,42.67
2019-04-25T01:41:17.446Z,42.73
2019-04-25T01:43:49.064Z,40.70
2019-04-25T01:46:17.821Z,45.80
2019-04-25T01:48:46.392Z,44.40
2019-04-25T01:51:15.267Z,45.70
2019-04-25T01:53:44.183Z,41.37
2019-04-25T01:56:13.609Z,41.60
2019-04-25T01:58:43.643Z,42.90
2019-04-25T02:01:14.227Z,40.73
2019-04-25T02:03:44.243Z,42.80
2019-04-25T02:06:13.677Z,45.20
2019-04-25T02:08:44.044Z,41.20
2019-04-25T02:11:14.551Z,38.93
2019-04-25T02:13:43.815Z,44.43
2019-04-25T02:16:14.216Z,41.90
2019-04-25T02:18:43.552Z,40.57
2019-04-25T02:21:13.742Z,37.53
2019-04-25T02:23:44.199Z,35.23
2019-04-25T02:26:16.760Z,38.33
2019-04-25T02:28:43.699Z,39.00
2019-04-25T02:31:17.521Z,37.20
2019-04-25T02:33:44.274Z,47.13
2019-04-25T02:36:15.094Z,35.50
2019-04-25T02:38:44.169Z,43.30
2019-04-25T02:41:14.790Z,36.30
2019-04-25T02:43:45.115Z,35.10
2019-04-25T02:46:15.344Z,32.03
2019-04-25T02:48:51.392Z,47.47
2019-04-25T02:51:24.155Z,32.53
2019-04-25T02:53:53.781Z,35.77
2019-04-25T02:56:33.236Z,36.67
2019-04-25T02:58:54.271Z,35.17
2019-04-25T03:01:26.123Z,37.90
2019-04-25T03:03:54.544Z,32.10
2019-04-25T03:06:25.038Z,31.87
2019-04-25T03:08:54.392Z,35.53
2019-04-25T03:11:24.497Z,36.73
2019-04-25T03:13:54.593Z,30.23
2019-04-25T03:16:25.099Z,28.90
2019-04-25T03:18:55.121Z,35.60
2019-04-25T03:21:25.396Z,36.67
2019-04-25T03:23:54.943Z,31.50
2019-04-25T03:26:23.654Z,39.47
2019-04-25T03:28:53.760Z,31.30
2019-04-25T03:31:26.755Z,29.00
2019-04-25T03:33:55.534Z,28.13
2019-04-25T03:36:23.839Z,23.83
2019-04-25T03:38:54.075Z,24.37
2019-04-25T03:41:24.437Z,18.80
2019-04-25T03:43:54.180Z,25.10
2019-04-25T03:46:23.329Z,24.50
2019-04-25T03:48:53.843Z,17.50
2019-04-25T03:51:23.865Z,12.90
2019-04-25T03:53:53.558Z,10.33
2019-04-25T03:56:22.242Z,12.70
2019-04-25T03:58:50.699Z,10.93
2019-04-25T04:01:19.286Z,18.40
2019-04-25T04:03:47.727Z,7.47
2019-04-25T04:06:16.226Z,7.00
2019-04-25T04:08:44.726Z,21.50
2019-04-25T04:11:14.538Z,8.60
2019-04-25T04:13:44.021Z,8.53
2019-04-25T04:16:15.609Z,12.23
2019-04-25T04:18:45.802Z,11.37
2019-04-25T04:21:33.254Z,8.87
2019-04-25T04:24:13.839Z,5.80
2019-04-25T04:26:43.124Z,7.33
2019-04-25T04:29:12.441Z,9.30
2019-04-25T04:31:43.144Z,7.90
2019-04-25T04:34:14.107Z,10.90
2019-04-25T04:36:43.657Z,12.57
2019-04-25T04:39:14.202Z,11.40
2019-04-25T04:41:43.651Z,11.60
2019-04-25T04:44:12.260Z,12.50
2019-04-25T04:46:43.898Z,8.30
2019-04-25T04:49:14.186Z,9.47
2019-04-25T04:51:44.320Z,9.43
2019-04-25T04:54:13.557Z,8.70
2019-04-25T04:56:43.844Z,9.70
2019-04-25T04:59:14.291Z,12.93
2019-04-25T05:01:47.141Z,9.47
2019-04-25T05:04:17.267Z,10.73
2019-04-25T05:06:47.370Z,14.70
2019-04-25T05:09:17.795Z,8.20
2019-04-25T05:11:46.529Z,12.70
2019-04-25T05:14:16.170Z,8.87
2019-04-25T05:16:44.760Z,8.17
2019-04-25T05:19:15.303Z,16.87
2019-04-25T05:21:45.503Z,5.70
2019-04-25T05:24:16.006Z,5.43
2019-04-25T05:26:44.102Z,11.30
2019-04-25T05:29:16.178Z,8.33
2019-04-25T05:31:45.590Z,7.60
2019-04-25T05:34:16.566Z,4.27
2019-04-25T05:36:44.607Z,4.27
2019-04-25T05:39:16.359Z,4.90
2019-04-25T05:41:50.808Z,8.10
2019-04-25T05:44:19.519Z,5.00
2019-04-25T05:46:48.077Z,7.20
2019-04-25T05:49:17.189Z,4.57
2019-04-25T05:51:45.856Z,2.63
2019-04-25T05:54:14.359Z,6.03
2019-04-25T05:56:43.778Z,4.97
2019-04-25T05:59:13.422Z,2.67
2019-04-25T06:01:43.458Z,7.43
2019-04-25T06:04:13.578Z,7.20
2019-04-25T06:06:42.187Z,3.97
2019-04-25T06:09:18.027Z,11.43
2019-04-25T06:11:56.700Z,2.23
2019-04-25T06:14:26.220Z,3.30
2019-04-25T06:16:56.526Z,3.70
2019-04-25T06:19:39.093Z,2.40
2019-04-25T06:22:09.253Z,2.47
2019-04-25T06:24:45.087Z,7.07
2019-04-25T06:27:15.299Z,5.87
2019-04-25T06:29:57.376Z,3.50
2019-04-25T06:32:15.786Z,5.00
2019-04-25T06:34:44.533Z,4.33
2019-04-25T06:37:13.925Z,4.80
2019-04-25T06:39:44.265Z,2.03
2019-04-25T06:42:13.809Z,3.03
2019-04-25T06:44:47.200Z,2.30
2019-04-25T06:47:21.190Z,2.50
2019-04-25T06:49:49.910Z,3.27
2019-04-25T06:52:18.388Z,1.50
2019-04-25T06:54:46.875Z,2.20
2019-04-25T06:57:15.311Z,3.50
2019-04-25T06:59:44.421Z,1.30
2019-04-25T07:02:13.969Z,2.37
2019-04-25T07:04:43.481Z,1.43
2019-04-25T07:07:14.833Z,2.70
2019-04-25T07:09:43.508Z,6.87
2019-04-25T07:12:13.463Z,2.77
2019-04-25T07:14:43.876Z,1.10
2019-04-25T07:17:14.142Z,1.17
2019-04-25T07:19:44.048Z,1.93
2019-04-25T07:22:15.203Z,8.17
2019-04-25T07:24:43.967Z,3.60
2019-04-25T07:27:20.091Z,3.53
2019-04-25T07:29:56.631Z,5.00
2019-04-25T07:32:34.153Z,3.30
2019-04-25T07:35:03.622Z,3.43
2019-04-25T07:37:36.129Z,4.03
2019-04-25T07:40:04.105Z,7.23
2019-04-25T07:42:34.261Z,2.13
2019-04-25T07:45:04.198Z,4.73
2019-04-25T07:47:34.872Z,1.67
2019-04-25T07:50:04.031Z,2.67
2019-04-25T07:52:33.578Z,4.07
2019-04-25T07:55:03.785Z,6.23
2019-04-25T07:57:33.519Z,1.63
2019-04-25T08:00:03.471Z,1.57
2019-04-25T08:02:34.145Z,3.00
2019-04-25T08:05:05.492Z,2.40
2019-04-25T08:07:34.991Z,3.23
2019-04-25T08:10:07.014Z,3.10
2019-04-25T08:12:35.761Z,9.87
2019-04-25T08:15:08.218Z,1.63
2019-04-25T08:17:47.044Z,1.53
2019-04-25T08:20:16.694Z,2.03
2019-04-25T08:22:55.687Z,2.60
2019-04-25T08:25:15.995Z,3.73
2019-04-25T08:27:45.096Z,3.47
2019-04-25T08:30:14.106Z,2.17
2019-04-25T08:32:44.075Z,1.80
2019-04-25T08:35:13.949Z,3.27
2019-04-25T08:37:44.095Z,2.00
2019-04-25T08:40:13.673Z,14.17
2019-04-25T08:42:44.037Z,6.13
2019-04-25T08:45:13.400Z,8.13
2019-04-25T08:47:43.812Z,4.13
2019-04-25T08:50:26.391Z,5.43
2019-04-25T08:52:44.423Z,4.10
2019-04-25T08:55:31.497Z,7.30
2019-04-25T08:58:20.990Z,3.03
2019-04-25T09:01:09.190Z,3.10
2019-04-25T09:03:57.214Z,6.80
2019-04-25T09:06:25.778Z,3.60
2019-04-25T09:08:54.263Z,2.47
2019-04-25T09:11:24.386Z,7.33
2019-04-25T09:13:53.757Z,12.00
2019-04-25T09:16:23.961Z,3.73
2019-04-25T09:18:53.928Z,10.03
2019-04-25T09:21:23.814Z,4.30
2019-04-25T09:23:53.574Z,3.40
2019-04-25T09:26:24.030Z,3.77
2019-04-25T09:28:53.652Z,2.67
2019-04-25T09:31:23.577Z,7.53
2019-04-25T09:33:54.212Z,5.50
2019-04-25T09:36:24.065Z,4.80
2019-04-25T09:38:54.300Z,1.93
2019-04-25T09:41:23.658Z,2.57
2019-04-25T09:43:54.987Z,3.00
2019-04-25T09:46:25.403Z,2.63
2019-04-25T09:49:01.684Z,1.50
2019-04-25T09:51:35.901Z,0.97
2019-04-25T09:54:09.091Z,1.80
2019-04-25T09:56:46.018Z,2.07
2019-04-25T09:59:27.294Z,4.30
2019-04-25T10:01:49.690Z,1.10
2019-04-25T10:04:18.217Z,4.27
2019-04-25T10:06:47.576Z,2.77
2019-04-25T10:09:16.398Z,1.90
2019-04-25T10:11:46.400Z,3.80
2019-04-25T10:14:24.532Z,1.40
2019-04-25T10:16:53.875Z,1.20
2019-04-25T10:19:23.551Z,3.90
2019-04-25T10:21:53.890Z,2.63
2019-04-25T10:24:22.338Z,1.73
2019-04-25T10:26:51.088Z,2.67
2019-04-25T10:29:19.643Z,1.93
2019-04-25T10:31:49.191Z,3.10
2019-04-25T10:34:18.124Z,7.10
2019-04-25T10:36:46.857Z,5.70
2019-04-25T10:39:15.335Z,2.30
2019-04-25T10:41:46.183Z,1.30
2019-04-25T10:44:14.242Z,2.00
2019-04-25T10:46:45.679Z,3.83
2019-04-25T10:49:14.546Z,1.60
2019-04-25T10:51:44.680Z,2.97
2019-04-25T10:54:14.577Z,2.10
2019-04-25T10:56:45.722Z,2.50
2019-04-25T10:59:14.462Z,1.70
2019-04-25T11:01:45.739Z,5.40
2019-04-25T11:04:15.209Z,2.70
2019-04-25T11:06:45.413Z,2.90
2019-04-25T11:09:18.045Z,3.90
2019-04-25T11:11:46.624Z,2.37
2019-04-25T11:14:15.604Z,1.47
2019-04-25T11:16:45.546Z,1.10
2019-04-25T11:19:15.339Z,2.70
2019-04-25T11:21:45.181Z,0.60
2019-04-25T11:24:14.380Z,3.03
2019-04-25T11:26:47.087Z,2.67
2019-04-25T11:29:14.952Z,0.80
2019-04-25T11:31:46.182Z,3.40
2019-04-25T11:34:16.810Z,2.67
2019-04-25T11:36:45.568Z,4.50
2019-04-25T11:39:33.303Z,1.10
2019-04-25T11:42:02.622Z,3.20
2019-04-25T11:44:31.097Z,2.97
2019-04-25T11:46:59.625Z,2.90
2019-04-25T11:49:29.422Z,5.80
2019-04-25T11:51:57.943Z,3.87
2019-04-25T11:54:26.437Z,3.73
2019-04-25T11:56:56.475Z,2.00
2019-04-25T11:59:25.170Z,1.93
2019-04-25T12:01:54.795Z,1.57
2019-04-25T12:04:24.020Z,1.10
2019-04-25T12:06:53.186Z,0.90
2019-04-25T12:09:23.951Z,2.40
2019-04-25T12:11:54.289Z,2.00
2019-04-25T12:14:23.574Z,3.80
2019-04-25T12:16:53.230Z,3.17
2019-04-25T12:19:33.127Z,1.77
2019-04-25T12:21:53.828Z,1.33
2019-04-25T12:24:23.897Z,0.93
2019-04-25T12:26:54.834Z,3.73
2019-04-25T12:29:24.415Z,1.00
2019-04-25T12:31:54.806Z,1.70
2019-04-25T12:34:24.285Z,2.10
2019-04-25T12:36:54.432Z,1.83
2019-04-25T12:39:24.303Z,1.73
2019-04-25T12:41:54.429Z,1.10
2019-04-25T12:44:33.529Z,1.47
2019-04-25T12:47:09.448Z,2.53
2019-04-25T12:49:38.205Z,1.30
2019-04-25T12:52:06.694Z,1.10
2019-04-25T12:54:35.207Z,2.37
2019-04-25T12:57:05.541Z,0.60
2019-04-25T12:59:34.240Z,2.80
2019-04-25T13:02:04.471Z,2.77
2019-04-25T13:04:34.878Z,0.90
2019-04-25T13:07:04.082Z,0.60
2019-04-25T13:09:34.010Z,1.27
2019-04-25T13:12:04.377Z,2.70
2019-04-25T13:14:33.171Z,1.17
2019-04-25T13:17:01.669Z,1.13
2019-04-25T13:19:30.191Z,2.20
2019-04-25T13:21:58.647Z,1.07
2019-04-25T13:24:27.121Z,0.60
2019-04-25T13:26:57.213Z,0.70
2019-04-25T13:29:43.319Z,1.93
2019-04-25T13:32:29.631Z,0.83
2019-04-25T13:34:59.828Z,0.80
2019-04-25T13:37:28.312Z,0.60
2019-04-25T13:39:58.112Z,1.03
2019-04-25T13:42:26.810Z,0.70
2019-04-25T13:44:56.598Z,0.67
2019-04-25T13:47:28.267Z,0.67
2019-04-25T13:49:55.528Z,2.20
2019-04-25T13:52:25.034Z,2.70
2019-04-25T13:54:53.846Z,1.80
2019-04-25T13:57:23.482Z,0.90
2019-04-25T13:59:54.143Z,3.50
2019-04-25T14:02:23.177Z,0.97
2019-04-25T14:04:51.672Z,2.53
2019-04-25T14:07:20.637Z,0.73
2019-04-25T14:09:50.396Z,0.60
2019-04-25T14:12:18.934Z,1.00
2019-04-25T14:14:47.424Z,0.77
2019-04-25T14:17:33.902Z,0.70
2019-04-25T14:20:04.347Z,1.07
2019-04-25T14:22:33.068Z,0.67
2019-04-25T14:25:01.721Z,1.97
2019-04-25T14:27:30.555Z,4.13
2019-04-25T14:29:59.088Z,3.90
2019-04-25T14:32:28.915Z,1.10
2019-04-25T14:34:57.757Z,2.30
2019-04-25T14:37:29.262Z,6.30
2019-04-25T14:39:56.461Z,4.57
2019-04-25T14:42:25.004Z,1.13
2019-04-25T14:44:53.501Z,6.50
2019-04-25T14:47:22.292Z,1.20
2019-04-25T14:49:51.619Z,1.03
2019-04-25T14:52:20.133Z,1.00
2019-04-25T14:54:52.982Z,0.90
2019-04-25T14:57:24.125Z,1.30
2019-04-25T14:59:53.071Z,2.80
2019-04-25T15:02:23.165Z,2.87
2019-04-25T15:04:51.805Z,0.83
2019-04-25T15:07:20.266Z,1.10
2019-04-25T15:09:48.773Z,2.37
2019-04-25T15:12:17.888Z,1.67
2019-04-25T15:14:46.583Z,3.07
2019-04-25T15:17:15.300Z,1.70
2019-04-25T15:19:43.872Z,1.90
2019-04-25T15:22:12.890Z,1.83
2019-04-25T15:24:41.389Z,1.80
2019-04-25T15:27:09.852Z,1.87
2019-04-25T15:29:38.537Z,1.60
2019-04-25T15:32:08.650Z,1.93
2019-04-25T15:34:38.832Z,1.27
2019-04-25T15:37:11.636Z,2.30
2019-04-25T15:39:41.869Z,1.53
2019-04-25T15:42:28.147Z,2.60
2019-04-25T15:45:04.237Z,1.13
2019-04-25T15:47:34.038Z,2.10
2019-04-25T15:50:02.665Z,2.60
2019-04-25T15:52:31.510Z,5.70
2019-04-25T15:55:07.470Z,1.60
2019-04-25T15:57:32.557Z,1.97
2019-04-25T16:00:01.021Z,5.87
2019-04-25T16:02:30.240Z,1.53
2019-04-25T16:04:58.848Z,3.00
2019-04-25T16:07:27.367Z,3.07
2019-04-25T16:09:55.863Z,4.33
2019-04-25T16:12:24.546Z,1.20
2019-04-25T16:14:53.032Z,3.80
2019-04-25T16:17:21.517Z,7.03
2019-04-25T16:19:50.006Z,5.33
2019-04-25T16:22:18.520Z,3.07
2019-04-25T16:24:47.295Z,3.10
2019-04-25T16:27:16.003Z,4.73
2019-04-25T16:29:44.442Z,4.43
2019-04-25T16:32:20.451Z,3.87
2019-04-25T16:34:44.814Z,4.23
2019-04-25T16:37:13.817Z,6.20
2019-04-25T16:39:43.245Z,4.40
2019-04-25T16:42:12.544Z,7.70
2019-04-25T16:44:41.367Z,6.07
2019-04-25T16:47:10.159Z,3.90
2019-04-25T16:49:39.145Z,2.83
2019-04-25T16:52:09.405Z,3.13
2019-04-25T16:54:38.105Z,3.20
2019-04-25T16:57:06.854Z,2.20
2019-04-25T16:59:35.565Z,2.40
2019-04-25T17:02:04.440Z,6.90
2019-04-25T17:04:33.271Z,4.50
2019-04-25T17:07:01.873Z,8.83
2019-04-25T17:09:30.581Z,2.33
2019-04-25T17:11:59.424Z,3.13
2019-04-25T17:14:39.495Z,4.10
2019-04-25T17:17:12.625Z,3.50
2019-04-25T17:19:52.052Z,7.10
2019-04-25T17:22:21.049Z,5.90
2019-04-25T17:24:49.506Z,2.10
2019-04-25T17:27:18.361Z,3.10
2019-04-25T17:29:46.932Z,3.27
2019-04-25T17:32:46.772Z,3.53
2019-04-25T17:35:05.382Z,4.10
2019-04-25T17:37:36.276Z,3.37
2019-04-25T17:40:13.276Z,2.50
2019-04-25T17:42:41.744Z,3.00
2019-04-25T17:45:12.478Z,8.57
2019-04-25T17:47:52.359Z,7.57
2019-04-25T17:50:11.531Z,4.00
2019-04-25T17:52:40.645Z,2.93
2019-04-25T17:55:09.752Z,3.60
2019-04-25T17:57:38.430Z,4.03
2019-04-25T18:00:09.406Z,4.93
2019-04-25T18:02:39.141Z,3.00
2019-04-25T18:05:07.767Z,2.23
2019-04-25T18:07:36.477Z,3.40
2019-04-25T18:10:06.703Z,6.83
2019-04-25T18:12:35.528Z,3.47
2019-04-25T18:15:07.051Z,4.70
2019-04-25T18:17:35.782Z,3.70
2019-04-25T18:20:08.023Z,4.47
2019-04-25T18:22:50.100Z,5.67
2019-04-25T18:25:20.318Z,5.70
2019-04-25T18:28:05.736Z,6.30
2019-04-25T18:30:35.626Z,10.30
2019-04-25T18:33:18.196Z,6.27
2019-04-25T18:35:48.360Z,5.10
2019-04-25T18:38:21.095Z,5.70
2019-04-25T18:40:54.206Z,6.80
2019-04-25T18:43:24.468Z,7.40
2019-04-25T18:45:54.865Z,3.13
2019-04-25T18:48:23.374Z,5.73
2019-04-25T18:50:51.891Z,10.33
2019-04-25T18:53:39.198Z,2.50
2019-04-25T18:56:18.421Z,2.33
2019-04-25T18:59:05.066Z,4.73
2019-04-25T19:01:35.239Z,12.03
2019-04-25T19:04:17.707Z,3.93
2019-04-25T19:06:55.129Z,5.60
2019-04-25T19:09:16.765Z,6.20
2019-04-25T19:11:45.344Z,10.73
2019-04-25T19:14:13.853Z,6.53
2019-04-25T19:16:43.017Z,10.63
2019-04-25T19:19:11.534Z,10.70
2019-04-25T19:21:40.706Z,8.87
2019-04-25T19:24:10.164Z,12.30
2019-04-25T19:26:40.689Z,19.73
2019-04-25T19:29:08.893Z,14.17
2019-04-25T19:31:37.415Z,10.97
2019-04-25T19:34:05.967Z,12.23
2019-04-25T19:36:34.559Z,9.20
2019-04-25T19:39:04.643Z,16.97
2019-04-25T19:41:37.686Z,9.77
2019-04-25T19:44:08.017Z,5.93
2019-04-25T19:46:38.446Z,6.50
2019-04-25T19:49:07.767Z,5.73
2019-04-25T19:51:36.601Z,4.07
2019-04-25T19:54:06.236Z,7.10
2019-04-25T19:56:35.228Z,5.70
2019-04-25T19:59:04.031Z,3.97
2019-04-25T20:01:32.859Z,4.37
2019-04-25T20:04:10.100Z,7.43
2019-04-25T20:06:56.600Z,5.30
2019-04-25T20:09:43.814Z,3.67
2019-04-25T20:12:13.715Z,10.20
2019-04-25T20:14:43.028Z,7.33
2019-04-25T20:17:12.947Z,5.30
2019-04-25T20:19:41.461Z,7.73
2019-04-25T20:22:09.994Z,3.93
2019-04-25T20:24:38.503Z,4.30
2019-04-25T20:27:06.976Z,7.07
2019-04-25T20:29:35.478Z,7.20
2019-04-25T20:32:06.956Z,5.30
2019-04-25T20:34:34.334Z,10.20
2019-04-25T20:37:03.250Z,6.17
2019-04-25T20:39:31.743Z,14.73
2019-04-25T20:42:00.375Z,10.73
2019-04-25T20:44:28.879Z,4.30
2019-04-25T20:46:57.871Z,9.27
2019-04-25T20:49:26.412Z,5.33
2019-04-25T20:51:54.981Z,7.23
2019-04-25T20:54:23.618Z,6.70
2019-04-25T20:56:52.862Z,3.77
2019-04-25T20:59:21.600Z,6.50
2019-04-25T21:01:50.117Z,2.90
2019-04-25T21:04:36.671Z,2.43
2019-04-25T21:07:05.387Z,6.07
2019-04-25T21:09:33.839Z,3.50
2019-04-25T21:12:03.276Z,3.20
2019-04-25T21:14:42.932Z,2.50
2019-04-25T21:17:13.073Z,3.23
2019-04-25T21:19:48.656Z,4.43
2019-04-25T21:22:16.313Z,7.63
2019-04-25T21:24:44.749Z,3.40
2019-04-25T21:27:13.350Z,3.10
2019-04-25T21:29:41.872Z,2.90
2019-04-25T21:32:10.559Z,5.10
2019-04-25T21:34:39.018Z,3.43
2019-04-25T21:37:09.752Z,2.80
2019-04-25T21:39:44.162Z,4.40
2019-04-25T21:42:14.588Z,2.70
2019-04-25T21:44:43.333Z,4.17
2019-04-25T21:47:11.836Z,3.30
2019-04-25T21:49:40.694Z,4.50
2019-04-25T21:52:09.176Z,3.57
2019-04-25T21:54:38.151Z,2.60
2019-04-25T21:57:06.942Z,13.13
2019-04-25T21:59:35.524Z,2.00
2019-04-25T22:02:04.895Z,2.13
2019-04-25T22:04:39.771Z,5.17
2019-04-25T22:07:04.049Z,9.50
2019-04-25T22:09:33.654Z,1.73
2019-04-25T22:12:03.267Z,4.30
2019-04-25T22:14:31.852Z,5.97
2019-04-25T22:17:00.918Z,2.77
2019-04-25T22:19:30.348Z,4.30
2019-04-25T22:21:59.099Z,4.97
2019-04-25T22:24:27.613Z,6.93
2019-04-25T22:26:58.770Z,4.90
2019-04-25T22:29:27.551Z,6.43
2019-04-25T22:32:07.487Z,5.10
2019-04-25T22:34:54.043Z,11.43
2019-04-25T22:37:22.670Z,4.77
2019-04-25T22:39:51.416Z,3.87
2019-04-25T22:42:19.958Z,4.40
2019-04-25T22:44:48.634Z,5.20
2019-04-25T22:47:17.687Z,7.73
2019-04-25T22:49:46.361Z,6.13
2019-04-25T22:52:15.357Z,8.00
2019-04-25T22:54:44.090Z,2.73
2019-04-25T22:57:13.014Z,5.50
2019-04-25T22:59:41.913Z,4.83
2019-04-25T23:02:12.058Z,3.70
2019-04-25T23:05:04.298Z,5.20
2019-04-25T23:07:21.627Z,6.73
2019-04-25T23:09:51.203Z,4.27
2019-04-25T23:12:20.248Z,4.37
2019-04-25T23:14:48.758Z,2.90
2019-04-25T23:17:17.242Z,4.77
2019-04-25T23:19:46.107Z,5.57
2019-04-25T23:22:14.666Z,3.03
2019-04-25T23:24:44.766Z,5.30
2019-04-25T23:27:14.884Z,5.13
2019-04-25T23:29:43.315Z,3.53
2019-04-25T23:32:12.439Z,7.80
2019-04-25T23:34:41.041Z,5.63
2019-04-25T23:37:09.514Z,9.70
2019-04-25T23:39:38.233Z,5.63
2019-04-25T23:42:07.301Z,5.73
2019-04-25T23:44:36.180Z,5.67
2019-04-25T23:47:05.948Z,7.00
2019-04-25T23:49:34.862Z,5.83
2019-04-25T23:52:03.651Z,6.47
2019-04-25T23:54:32.587Z,4.80
2019-04-25T23:57:01.363Z,5.10
2019-04-25T23:59:29.814Z,4.33
